Time;durP1;ratioP1;P1;durP2;ratioP2;P2;SDS_P1;SDS_P2;PMS_P1;PMS_P2;Temp;Humidity;BMP_temperature;BMP_pressure;BME280_temperature;BME280_humidity;BME280_pressure;Samples;Min_cycle;Max_cycle;Signal;HPM_P1;HPM_P2
2022/10/24 00:00:10;;;;;;;6.43;1.70;;;18.80;99.90;;;;;;5021838;28;20029;-78
2022/10/24 00:02:36;;;;;;;8.30;1.67;;;18.80;99.90;;;;;;5010980;28;20018;-78
2022/10/24 00:05:02;;;;;;;8.13;2.47;;;18.70;99.90;;;;;;5013114;28;20136;-77
2022/10/24 00:07:28;;;;;;;9.93;1.70;;;18.70;99.90;;;;;;5005814;28;20141;-77
2022/10/24 00:09:53;;;;;;;4.15;1.27;;;18.60;99.90;;;;;;5011913;28;20518;-77
2022/10/24 00:12:19;;;;;;;8.10;1.60;;;18.60;99.90;;;;;;5013340;28;20025;-78
2022/10/24 00:14:45;;;;;;;7.85;1.45;;;18.50;99.90;;;;;;5013609;28;20045;-77
2022/10/24 00:17:10;;;;;;;13.68;2.30;;;18.40;99.90;;;;;;5013600;28;20057;-77
2022/10/24 00:19:36;;;;;;;8.20;1.50;;;18.40;99.90;;;;;;4996920;28;20037;-78
2022/10/24 00:22:02;;;;;;;5.35;1.38;;;18.30;99.90;;;;;;5013372;28;20455;-77
2022/10/24 00:24:28;;;;;;;5.65;1.30;;;18.20;99.90;;;;;;5016807;28;20097;-78
2022/10/24 00:26:57;;;;;;;3.33;1.23;;;18.20;99.90;;;;;;5013361;28;20022;-77
2022/10/24 00:29:22;;;;;;;4.18;1.20;;;18.00;99.90;;;;;;5001333;28;20030;-78
2022/10/24 00:31:48;;;;;;;4.68;1.10;;;18.00;99.90;;;;;;5005239;28;20076;-77
2022/10/24 00:34:15;;;;;;;4.68;1.25;;;17.90;99.90;;;;;;4998735;28;20519;-77
2022/10/24 00:36:40;;;;;;;5.05;1.10;;;17.80;99.90;;;;;;5013599;28;20026;-78
2022/10/24 00:39:06;;;;;;;5.25;1.30;;;17.80;99.90;;;;;;5011078;28;20029;-77
2022/10/24 00:41:37;;;;;;;7.43;1.27;;;17.70;99.90;;;;;;4995785;28;20065;-77
2022/10/24 00:44:18;;;;;;;3.20;0.88;;;17.60;99.90;;;;;;4995420;28;20033;-78
2022/10/24 00:46:51;;;;;;;2.42;1.15;;;17.60;99.90;;;;;;5016573;28;20394;-77
2022/10/24 00:49:21;;;;;;;3.80;0.90;;;17.50;99.90;;;;;;5013155;28;20080;-78
2022/10/24 00:51:51;;;;;;;5.10;1.23;;;17.40;99.90;;;;;;4996516;28;20434;-78
2022/10/24 00:54:17;;;;;;;2.47;0.95;;;17.40;99.90;;;;;;5010228;28;20022;-78
2022/10/24 00:56:54;;;;;;;5.97;1.00;;;17.30;99.90;;;;;;5012749;28;20018;-78
2022/10/24 00:59:20;;;;;;;8.93;1.23;;;17.30;99.90;;;;;;5010568;28;20108;-78
2022/10/24 01:01:46;;;;;;;4.25;1.30;;;17.20;99.90;;;;;;5014406;28;20129;-77
2022/10/24 01:04:13;;;;;;;4.05;1.10;;;17.10;99.90;;;;;;4994973;28;20497;-77
2022/10/24 01:07:16;;;;;;;5.90;1.10;;;17.10;99.90;;;;;;5013340;28;20032;-77
2022/10/24 01:09:54;;;;;;;4.63;1.10;;;17.10;99.90;;;;;;5013684;28;20037;-78
2022/10/24 01:12:47;;;;;;;6.22;1.17;;;17.00;99.90;;;;;;5011706;28;20034;-78
2022/10/24 01:15:18;;;;;;;5.93;1.00;;;17.00;99.90;;;;;;5015664;28;20060;-78
2022/10/24 01:17:48;;;;;;;6.40;1.70;;;17.00;99.90;;;;;;5011057;28;20079;-78
2022/10/24 01:20:51;;;;;;;5.68;1.90;;;17.00;99.90;;;;;;5010841;28;20037;-78
2022/10/24 01:23:43;;;;;;;4.13;1.40;;;17.00;99.90;;;;;;5016725;28;20091;-78
2022/10/24 01:26:27;;;;;;;8.35;1.80;;;17.00;99.90;;;;;;4985900;28;20037;-78
2022/10/24 01:29:22;;;;;;;3.88;1.10;;;17.00;99.90;;;;;;5016965;28;20026;-77
2022/10/24 01:31:50;;;;;;;;;;;16.90;99.90;;;;;;5018365;28;20045;-78
2022/10/24 01:34:41;;;;;;;10.70;1.40;;;16.90;99.90;;;;;;5015832;28;19910;-78
2022/10/24 01:37:18;;;;;;;8.65;1.67;;;17.00;99.90;;;;;;4996842;28;20018;-78
2022/10/24 01:39:49;;;;;;;4.53;1.00;;;16.90;99.90;;;;;;5017094;28;20482;-78
2022/10/24 01:42:19;;;;;;;7.93;1.40;;;17.00;99.90;;;;;;5015650;28;20041;-78
2022/10/24 01:44:50;;;;;;;8.27;1.10;;;17.00;99.90;;;;;;5017632;28;20022;-78
2022/10/24 01:47:26;;;;;;;10.63;1.80;;;17.00;99.90;;;;;;5015168;28;20022;-78
2022/10/24 01:49:58;;;;;;;9.02;2.00;;;17.00;99.90;;;;;;5016130;28;20025;-78
2022/10/24 01:52:29;;;;;;;11.95;2.60;;;17.00;99.90;;;;;;5015277;28;20363;-78
2022/10/24 01:54:55;;;;;;;7.00;1.70;;;17.10;99.90;;;;;;5017918;28;20022;-78
2022/10/24 01:57:29;;;;;;;10.90;2.38;;;17.10;99.90;;;;;;5019526;28;20097;-78
2022/10/24 01:59:55;;;;;;;14.63;2.75;;;17.10;99.90;;;;;;5000006;28;20102;-78
2022/10/24 02:02:25;;;;;;;10.93;2.47;;;17.10;99.90;;;;;;5009653;28;20063;-78
2022/10/24 02:05:11;;;;;;;11.35;2.60;;;17.20;99.90;;;;;;5016403;28;20021;-78
2022/10/24 02:07:40;;;;;;;8.32;2.00;;;17.20;99.90;;;;;;5017653;28;20029;-77
2022/10/24 02:10:31;;;;;;;10.95;2.30;;;17.20;99.90;;;;;;5011318;28;20019;-78
2022/10/24 02:13:23;;;;;;;8.80;2.08;;;17.20;99.90;;;;;;4997672;28;20030;-78
2022/10/24 02:15:54;;;;;;;10.80;2.00;;;17.20;99.90;;;;;;5015209;28;20042;-79
2022/10/24 02:18:20;;;;;;;11.13;1.92;;;17.10;99.90;;;;;;5017533;28;20014;-76
2022/10/24 02:20:53;;;;;;;7.93;2.88;;;17.20;99.90;;;;;;5017124;28;20041;-78
2022/10/24 02:23:26;;;;;;;6.07;1.90;;;17.20;99.90;;;;;;5015091;28;20374;-78
2022/10/24 02:25:56;;;;;;;9.23;2.00;;;17.20;99.90;;;;;;5012251;28;20044;-77
2022/10/24 02:28:25;;;;;;;9.40;2.08;;;17.20;99.90;;;;;;5021949;28;20505;-77
2022/10/24 02:31:05;;;;;;;9.82;1.92;;;17.10;99.90;;;;;;5014738;28;20029;-77
2022/10/24 02:33:34;;;;;;;8.88;2.20;;;17.10;99.90;;;;;;5013639;28;20068;-78
2022/10/24 02:36:03;;;;;;;6.55;1.92;;;17.10;99.90;;;;;;5005720;28;20026;-77
2022/10/24 02:38:35;;;;;;;7.68;1.63;;;17.00;99.90;;;;;;5014779;28;20029;-78
2022/10/24 02:41:08;;;;;;;5.85;1.80;;;17.00;99.90;;;;;;5013560;28;20018;-78
2022/10/24 02:43:34;;;;;;;5.80;1.43;;;16.90;99.90;;;;;;5016628;28;20561;-78
2022/10/24 02:46:01;;;;;;;7.82;2.22;;;16.90;99.90;;;;;;5019450;28;20333;-78
2022/10/24 02:48:34;;;;;;;8.50;1.52;;;16.80;99.90;;;;;;5016607;28;20431;-78
2022/10/24 02:51:02;;;;;;;4.40;1.58;;;16.80;99.90;;;;;;5017191;28;20073;-78
2022/10/24 02:53:28;;;;;;;12.18;1.88;;;16.80;99.90;;;;;;5013420;28;20037;-78
2022/10/24 02:55:54;;;;;;;4.40;1.40;;;16.70;99.90;;;;;;5014767;28;20506;-78
2022/10/24 02:58:19;;;;;;;9.25;1.90;;;16.70;99.90;;;;;;5014002;28;20061;-77
2022/10/24 03:00:45;;;;;;;9.48;1.67;;;16.70;99.90;;;;;;5005126;28;20014;-78
2022/10/24 03:03:11;;;;;;;6.03;2.08;;;16.70;99.90;;;;;;5006976;28;20014;-78
2022/10/24 03:05:36;;;;;;;5.57;1.52;;;16.70;99.90;;;;;;5017309;28;20037;-79
2022/10/24 03:08:02;;;;;;;5.18;1.67;;;16.60;99.90;;;;;;5017376;28;20485;-79
2022/10/24 03:10:28;;;;;;;5.57;1.70;;;16.70;99.90;;;;;;5018604;28;20041;-78
2022/10/24 03:12:54;;;;;;;8.57;1.90;;;16.60;99.90;;;;;;5018007;28;20049;-76
2022/10/24 03:15:19;;;;;;;5.13;1.60;;;16.70;99.90;;;;;;4992580;28;20022;-77
2022/10/24 03:17:47;;;;;;;8.07;1.90;;;16.70;99.90;;;;;;5017098;28;20030;-79
2022/10/24 03:20:14;;;;;;;5.60;1.75;;;16.70;99.90;;;;;;5017150;28;20018;-79
2022/10/24 03:22:39;;;;;;;6.13;2.40;;;16.70;99.90;;;;;;5017424;28;20473;-78
2022/10/24 03:25:06;;;;;;;6.57;2.15;;;16.70;99.90;;;;;;5028369;28;20054;-77
2022/10/24 03:27:32;;;;;;;7.53;1.70;;;16.70;99.90;;;;;;5013423;28;20067;-78
2022/10/24 03:29:59;;;;;;;10.02;2.42;;;16.70;99.90;;;;;;5015095;28;20028;-77
2022/10/24 03:32:25;;;;;;;9.18;1.70;;;16.70;99.90;;;;;;5015049;28;20033;-78
2022/10/24 03:34:51;;;;;;;9.38;1.80;;;16.70;99.90;;;;;;5007096;28;20026;-78
2022/10/24 03:37:17;;;;;;;8.40;1.70;;;16.60;99.90;;;;;;5015913;28;20418;-78
2022/10/24 03:39:42;;;;;;;4.95;1.73;;;16.70;99.90;;;;;;4999754;28;20069;-78
2022/10/24 03:42:08;;;;;;;9.98;2.13;;;16.70;99.90;;;;;;5015303;28;20442;-77
2022/10/24 03:44:34;;;;;;;8.27;1.48;;;16.70;99.90;;;;;;5010789;28;20053;-77
2022/10/24 03:46:59;;;;;;;8.70;1.65;;;16.70;99.90;;;;;;4995511;28;20026;-77
2022/10/24 03:49:25;;;;;;;7.72;1.67;;;16.70;99.90;;;;;;5014137;28;20088;-77
2022/10/24 03:51:50;;;;;;;11.07;2.70;;;16.70;99.90;;;;;;5012900;28;20042;-78
2022/10/24 03:54:16;;;;;;;11.95;2.35;;;16.70;99.90;;;;;;5017080;28;20056;-77
2022/10/24 03:56:43;;;;;;;9.52;2.30;;;16.70;99.90;;;;;;5020334;28;20045;-78
2022/10/24 03:59:08;;;;;;;9.30;1.83;;;16.70;99.90;;;;;;5023064;28;20032;-78
2022/10/24 04:01:34;;;;;;;9.80;2.10;;;16.70;99.90;;;;;;5016537;28;20018;-77
2022/10/24 04:04:00;;;;;;;9.63;2.45;;;16.70;99.90;;;;;;5014822;28;20112;-78
2022/10/24 04:06:25;;;;;;;10.73;2.22;;;16.70;99.90;;;;;;5015111;28;20058;-77
2022/10/24 04:08:51;;;;;;;9.05;2.65;;;16.70;99.90;;;;;;5015684;28;20025;-77
2022/10/24 04:11:23;;;;;;;8.55;2.08;;;16.70;99.90;;;;;;5000453;28;20367;-77
2022/10/24 04:13:48;;;;;;;11.13;1.88;;;16.70;99.90;;;;;;5010558;28;20114;-77
2022/10/24 04:16:14;;;;;;;6.25;1.83;;;16.70;99.90;;;;;;5015309;28;20491;-78
2022/10/24 04:18:43;;;;;;;8.80;2.10;;;16.70;99.90;;;;;;4995187;28;20044;-77
2022/10/24 04:21:12;;;;;;;9.73;2.30;;;16.70;99.90;;;;;;5021553;28;20051;-78
2022/10/24 04:23:43;;;;;;;6.70;1.90;;;16.70;99.90;;;;;;5013734;28;20045;-77
2022/10/24 04:26:10;;;;;;;8.00;2.28;;;16.70;99.90;;;;;;5016857;28;20026;-77
2022/10/24 04:28:39;;;;;;;6.88;1.88;;;16.70;99.90;;;;;;5008620;28;20042;-78
2022/10/24 04:31:05;;;;;;;6.63;1.88;;;16.70;99.90;;;;;;5007274;28;20040;-77
2022/10/24 04:33:39;;;;;;;10.70;2.60;;;16.70;99.90;;;;;;5011273;28;20113;-77
2022/10/24 04:36:05;;;;;;;8.50;1.67;;;16.70;99.90;;;;;;5002765;28;20018;-77
2022/10/24 04:38:31;;;;;;;12.05;2.80;;;16.70;99.90;;;;;;5014549;28;20038;-77
2022/10/24 04:41:09;;;;;;;7.93;2.00;;;16.70;99.90;;;;;;5015182;28;20079;-77
2022/10/24 04:43:34;;;;;;;5.80;1.58;;;16.70;99.90;;;;;;5012996;28;20030;-77
2022/10/24 04:46:01;;;;;;;9.23;1.70;;;16.70;99.90;;;;;;5015700;28;20022;-77
2022/10/24 04:48:27;;;;;;;9.55;1.73;;;16.70;99.90;;;;;;5012579;28;20053;-77
2022/10/24 04:50:58;;;;;;;7.70;2.08;;;16.70;99.90;;;;;;5012453;28;20026;-78
2022/10/24 04:53:30;;;;;;;6.47;1.67;;;16.80;99.90;;;;;;5009506;28;20129;-77
2022/10/24 04:55:55;;;;;;;11.55;1.67;;;16.80;99.90;;;;;;5011517;28;20032;-77
2022/10/24 04:58:21;;;;;;;11.35;1.85;;;16.80;99.90;;;;;;4999074;28;20022;-74
2022/10/24 05:00:49;;;;;;;11.80;2.17;;;16.80;99.90;;;;;;5014736;28;20113;-73
2022/10/24 05:03:22;;;;;;;6.25;2.05;;;17.00;99.90;;;;;;5011124;28;20378;-72
2022/10/24 05:05:50;;;;;;;6.60;1.85;;;17.10;99.90;;;;;;5016424;28;20105;-72
2022/10/24 05:08:16;;;;;;;7.82;1.77;;;17.20;99.90;;;;;;5016075;28;20103;-73
2022/10/24 05:10:42;;;;;;;13.50;1.92;;;17.30;99.90;;;;;;5011531;28;20057;-73
2022/10/24 05:13:08;;;;;;;6.57;1.90;;;17.40;99.90;;;;;;5015590;28;20061;-74
2022/10/24 05:15:34;;;;;;;7.38;1.77;;;17.40;99.90;;;;;;5002235;28;20079;-74
2022/10/24 05:18:00;;;;;;;4.13;1.15;;;17.40;99.90;;;;;;5013612;28;20030;-72
2022/10/24 05:20:26;;;;;;;6.28;1.80;;;17.30;99.90;;;;;;5014408;28;20095;-73
2022/10/24 05:22:51;;;;;;;5.93;2.10;;;17.40;99.90;;;;;;5013292;28;20034;-73
2022/10/24 05:25:18;;;;;;;5.97;1.38;;;17.40;99.90;;;;;;4995816;28;20368;-70
2022/10/24 05:27:43;;;;;;;7.95;1.80;;;17.40;99.90;;;;;;5015406;28;20029;-70
2022/10/24 05:30:10;;;;;;;7.72;1.55;;;17.40;99.90;;;;;;5016594;28;20497;-75
2022/10/24 05:32:35;;;;;;;8.32;1.73;;;17.30;99.90;;;;;;5011951;28;20041;-75
2022/10/24 05:35:01;;;;;;;7.88;1.30;;;17.30;99.90;;;;;;5000189;28;20026;-75
2022/10/24 05:37:27;;;;;;;24.55;3.85;;;17.20;99.90;;;;;;5015570;28;20073;-75
2022/10/24 05:39:53;;;;;;;6.70;1.55;;;17.10;99.90;;;;;;5023448;28;20045;-73
2022/10/24 05:42:18;;;;;;;6.55;1.98;;;17.00;99.90;;;;;;5013385;28;20030;-73
2022/10/24 05:44:44;;;;;;;9.50;1.70;;;17.00;99.90;;;;;;5016853;28;20426;-74
2022/10/24 05:47:10;;;;;;;4.13;1.27;;;16.90;99.90;;;;;;5010302;28;20022;-75
2022/10/24 05:49:35;;;;;;;3.67;1.27;;;16.90;99.90;;;;;;5015882;28;20048;-76
2022/10/24 05:52:01;;;;;;;4.95;1.35;;;16.80;99.90;;;;;;5014700;28;20386;-75
2022/10/24 05:54:27;;;;;;;7.05;1.65;;;16.80;99.90;;;;;;5001949;28;20033;-77
2022/10/24 05:56:56;;;;;;;4.88;1.50;;;16.80;99.90;;;;;;5017039;28;20034;-77
2022/10/24 05:59:22;;;;;;;5.38;1.58;;;16.80;99.90;;;;;;5017852;28;20026;-77
2022/10/24 06:01:47;;;;;;;7.32;1.55;;;16.80;99.90;;;;;;5018497;28;20129;-75
2022/10/24 06:04:13;;;;;;;12.63;1.58;;;16.80;99.90;;;;;;5018287;28;20108;-76
2022/10/24 06:06:40;;;;;;;7.15;1.52;;;16.70;99.90;;;;;;5014416;28;20069;-76
2022/10/24 06:09:06;;;;;;;7.97;1.40;;;16.70;99.90;;;;;;5015632;28;20029;-76
2022/10/24 06:11:31;;;;;;;6.53;1.30;;;16.70;99.90;;;;;;5013820;28;20041;-76
2022/10/24 06:13:57;;;;;;;7.68;1.88;;;16.70;99.90;;;;;;5016464;28;20025;-76
2022/10/24 06:16:24;;;;;;;5.65;1.50;;;16.70;99.90;;;;;;5012848;28;20037;-75
2022/10/24 06:18:52;;;;;;;4.68;1.65;;;16.70;99.90;;;;;;5019924;28;20470;-76
2022/10/24 06:21:21;;;;;;;6.32;2.13;;;16.70;99.90;;;;;;5010780;28;20105;-78
2022/10/24 06:23:47;;;;;;;5.95;1.95;;;16.60;99.90;;;;;;5003488;28;20030;-78
2022/10/24 06:26:13;;;;;;;7.88;1.92;;;16.60;99.90;;;;;;5013036;28;20122;-78
2022/10/24 06:28:51;;;;;;;6.55;2.15;;;16.60;99.90;;;;;;5017336;28;20026;-77
2022/10/24 06:31:25;;;;;;;7.38;1.58;;;16.60;99.90;;;;;;5016171;28;20022;-78
2022/10/24 06:33:54;;;;;;;3.92;1.73;;;16.50;99.90;;;;;;5005892;28;20026;-78
2022/10/24 06:36:20;;;;;;;4.68;2.10;;;16.50;99.90;;;;;;5013108;28;20022;-78
2022/10/24 06:38:49;;;;;;;7.47;2.78;;;16.50;99.90;;;;;;5007873;28;20046;-77
2022/10/24 06:41:16;;;;;;;7.13;2.25;;;16.50;99.90;;;;;;5017327;28;20028;-78
2022/10/24 06:43:42;;;;;;;6.50;2.50;;;16.40;99.90;;;;;;5021267;28;20075;-78
2022/10/24 06:46:14;;;;;;;7.97;2.30;;;16.40;99.90;;;;;;5014870;28;20076;-78
2022/10/24 06:48:40;;;;;;;6.18;2.17;;;16.30;99.90;;;;;;5018535;28;20053;-76
2022/10/24 06:51:06;;;;;;;10.18;2.17;;;16.30;99.90;;;;;;5013986;28;20026;-77
2022/10/24 06:53:33;;;;;;;5.78;1.85;;;16.30;99.90;;;;;;5013842;28;20018;-77
2022/10/24 06:56:00;;;;;;;21.30;14.85;;;16.30;99.90;;;;;;5013769;28;20367;-77
2022/10/24 06:58:30;;;;;;;34.85;27.48;;;16.20;99.90;;;;;;5013304;28;20037;-77
2022/10/24 07:00:56;;;;;;;30.55;14.05;;;16.20;99.90;;;;;;5014378;28;20013;-77
2022/10/24 07:03:22;;;;;;;12.77;5.75;;;16.20;99.90;;;;;;5006479;28;20113;-78
2022/10/24 07:05:47;;;;;;;10.75;3.72;;;16.20;99.90;;;;;;5013432;28;20049;-78
2022/10/24 07:08:13;;;;;;;8.27;3.25;;;16.20;99.90;;;;;;4997950;28;20025;-78
2022/10/24 07:10:39;;;;;;;11.40;2.72;;;16.20;99.90;;;;;;5012601;28;20034;-76
2022/10/24 07:13:04;;;;;;;9.77;2.88;;;16.20;99.90;;;;;;5012931;28;20038;-77
2022/10/24 07:15:30;;;;;;;11.43;2.97;;;16.20;99.90;;;;;;5013506;28;20034;-77
2022/10/24 07:17:55;;;;;;;7.25;2.78;;;16.20;99.90;;;;;;5014799;28;20113;-77
2022/10/24 07:20:21;;;;;;;12.30;3.60;;;16.20;99.90;;;;;;4997967;28;20022;-78
2022/10/24 07:22:47;;;;;;;9.13;3.00;;;16.20;99.90;;;;;;5016742;28;20037;-76
2022/10/24 07:25:13;;;;;;;13.07;3.22;;;16.20;99.90;;;;;;5011814;28;20443;-77
2022/10/24 07:27:39;;;;;;;18.55;4.18;;;16.20;99.90;;;;;;4993896;28;20165;-77
2022/10/24 07:30:06;;;;;;;13.70;3.13;;;16.20;99.90;;;;;;5012034;28;20390;-76
2022/10/24 07:32:31;;;;;;;11.23;2.60;;;16.00;99.90;;;;;;5013009;28;20032;-76
2022/10/24 07:34:57;;;;;;;6.40;2.13;;;15.90;99.90;;;;;;5005706;28;20022;-77
2022/10/24 07:37:23;;;;;;;10.43;2.05;;;15.80;99.90;;;;;;4994005;28;20029;-77
2022/10/24 07:39:48;;;;;;;6.50;2.03;;;15.80;99.90;;;;;;5015598;28;20037;-77
2022/10/24 07:42:15;;;;;;;7.05;1.75;;;15.80;99.90;;;;;;5013566;28;20475;-77
2022/10/24 07:44:41;;;;;;;13.82;3.05;;;15.70;99.90;;;;;;5012975;28;20030;-76
2022/10/24 07:47:08;;;;;;;9.35;1.70;;;15.70;99.90;;;;;;5015266;28;20020;-77
2022/10/24 07:49:34;;;;;;;5.57;1.60;;;15.70;99.90;;;;;;5011268;28;20140;-76
2022/10/24 07:52:00;;;;;;;6.28;1.80;;;15.70;99.90;;;;;;5013311;28;20475;-76
2022/10/24 07:54:27;;;;;;;6.60;2.05;;;15.70;99.90;;;;;;5012397;28;20036;-77
2022/10/24 07:56:53;;;;;;;7.88;2.10;;;15.70;99.90;;;;;;5002366;28;20570;-78
2022/10/24 07:59:19;;;;;;;5.97;1.92;;;15.80;99.90;;;;;;5016353;28;20030;-78
2022/10/24 08:01:44;;;;;;;11.32;2.08;;;15.80;99.90;;;;;;5014843;28;20025;-76
2022/10/24 08:04:10;;;;;;;7.80;2.70;;;15.80;99.90;;;;;;5012575;28;20026;-77
2022/10/24 08:06:36;;;;;;;6.43;2.35;;;15.90;99.90;;;;;;5012930;28;20046;-77
2022/10/24 08:09:02;;;;;;;6.13;2.05;;;15.90;99.90;;;;;;5013511;28;20032;-77
2022/10/24 08:11:29;;;;;;;7.45;2.15;;;16.00;99.90;;;;;;5011748;28;20045;-77
2022/10/24 08:13:58;;;;;;;5.93;2.15;;;16.00;99.90;;;;;;4996263;28;20036;-76
2022/10/24 08:16:24;;;;;;;10.10;1.90;;;16.00;99.90;;;;;;5012130;28;20048;-75
2022/10/24 08:18:52;;;;;;;6.90;1.63;;;16.00;99.90;;;;;;5002931;28;20030;-77
2022/10/24 08:21:19;;;;;;;5.22;2.20;;;15.90;99.90;;;;;;5010859;28;20026;-76
2022/10/24 08:23:48;;;;;;;6.75;2.08;;;16.00;99.90;;;;;;5016198;28;20022;-77
2022/10/24 08:26:16;;;;;;;8.35;2.33;;;16.00;99.90;;;;;;4995609;28;20025;-76
2022/10/24 08:28:42;;;;;;;9.63;1.92;;;16.00;99.90;;;;;;5016333;28;20444;-77
2022/10/24 08:31:14;;;;;;;5.30;1.77;;;16.00;99.90;;;;;;5012763;28;20073;-76
2022/10/24 08:33:39;;;;;;;8.90;2.17;;;16.00;99.90;;;;;;5001514;28;20625;-77
2022/10/24 08:36:25;;;;;;;6.72;2.15;;;16.00;99.90;;;;;;5014454;28;20036;-77
2022/10/24 08:38:51;;;;;;;8.15;2.42;;;16.10;99.90;;;;;;5013456;28;20033;-76
2022/10/24 08:41:38;;;;;;;8.60;2.60;;;16.00;99.90;;;;;;5012767;28;20022;-76
2022/10/24 08:44:15;;;;;;;10.43;2.28;;;16.00;99.90;;;;;;5015770;28;20493;-76
2022/10/24 08:46:47;;;;;;;10.15;2.20;;;16.10;99.90;;;;;;5011330;28;20496;-76
2022/10/24 08:49:16;;;;;;;6.05;2.17;;;16.00;99.90;;;;;;5010441;28;20033;-76
2022/10/24 08:51:47;;;;;;;7.65;1.92;;;16.00;99.90;;;;;;5011164;28;20057;-77
2022/10/24 08:54:18;;;;;;;4.60;1.50;;;16.10;99.90;;;;;;5015009;28;20088;-78
2022/10/24 08:56:47;;;;;;;6.15;1.83;;;16.10;99.90;;;;;;4996917;28;20027;-78
2022/10/24 08:59:23;;;;;;;6.75;2.10;;;16.10;99.90;;;;;;5014688;28;20021;-77
2022/10/24 09:02:13;;;;;;;10.57;1.70;;;16.10;99.90;;;;;;5014099;28;20030;-77
2022/10/24 09:04:46;;;;;;;5.65;1.92;;;16.10;99.90;;;;;;4997045;28;20026;-77
2022/10/24 09:07:19;;;;;;;5.05;1.55;;;16.10;99.90;;;;;;5013697;28;20095;-79
2022/10/24 09:09:48;;;;;;;7.07;1.83;;;16.10;99.90;;;;;;5014559;28;20018;-77
2022/10/24 09:12:16;;;;;;;5.80;2.05;;;16.10;99.90;;;;;;5010335;28;20037;-77
2022/10/24 09:14:44;;;;;;;6.68;1.65;;;16.10;99.90;;;;;;5009876;28;20418;-78
2022/10/24 09:17:36;;;;;;;4.93;1.42;;;16.10;99.90;;;;;;5008339;28;20084;-75
2022/10/24 09:20:19;;;;;;;8.10;2.42;;;16.10;99.90;;;;;;5005701;28;20064;-74
2022/10/24 09:22:46;;;;;;;6.05;1.42;;;16.10;99.90;;;;;;5011040;28;20029;-77
2022/10/24 09:25:16;;;;;;;9.98;2.33;;;16.10;99.90;;;;;;4999772;28;20034;-76
2022/10/24 09:27:42;;;;;;;4.18;1.35;;;16.20;99.90;;;;;;5013519;28;20018;-76
2022/10/24 09:30:18;;;;;;;8.38;1.48;;;16.20;99.90;;;;;;5011026;28;20022;-76
2022/10/24 09:32:44;;;;;;;8.63;2.40;;;16.20;99.90;;;;;;5009919;28;20605;-77
2022/10/24 09:35:28;;;;;;;7.47;1.85;;;16.20;99.90;;;;;;5010500;28;20037;-76
2022/10/24 09:37:55;;;;;;;;;;;16.20;99.90;;;;;;5015702;28;20069;-76
2022/10/24 09:40:23;;;;;;;6.90;1.52;;;16.30;99.90;;;;;;5012221;28;20381;-77
2022/10/24 09:42:53;;;;;;;5.25;1.63;;;16.30;99.90;;;;;;5014536;28;20431;-77
2022/10/24 09:45:28;;;;;;;6.65;1.77;;;16.30;99.90;;;;;;5016061;28;20030;-77
2022/10/24 09:48:06;;;;;;;4.00;1.40;;;16.30;99.90;;;;;;5001335;28;20032;-76
2022/10/24 09:50:34;;;;;;;6.43;1.35;;;16.30;99.90;;;;;;4998304;28;20117;-76
2022/10/24 09:53:02;;;;;;;5.47;1.45;;;16.40;99.90;;;;;;4998893;28;20021;-77
2022/10/24 09:55:28;;;;;;;5.65;0.90;;;16.30;99.90;;;;;;5015153;28;20025;-77
2022/10/24 09:57:57;;;;;;;4.93;1.23;;;16.30;99.90;;;;;;5014779;28;20104;-76
2022/10/24 10:00:33;;;;;;;4.15;1.30;;;16.40;99.90;;;;;;5015417;28;20026;-77
2022/10/24 10:03:06;;;;;;;5.57;1.70;;;16.40;99.90;;;;;;5014772;28;20713;-77
2022/10/24 10:05:53;;;;;;;5.43;1.10;;;16.40;99.90;;;;;;5015214;28;20104;-77
2022/10/24 10:08:22;;;;;;;4.28;1.65;;;16.40;99.90;;;;;;5002785;28;20030;-77
2022/10/24 10:11:03;;;;;;;8.27;1.30;;;16.40;99.90;;;;;;5010734;28;20482;-75
2022/10/24 10:13:36;;;;;;;2.40;0.95;;;16.40;99.90;;;;;;5016978;28;20033;-77
2022/10/24 10:16:04;;;;;;;3.38;0.90;;;16.40;99.90;;;;;;5014886;28;20120;-76
2022/10/24 10:18:32;;;;;;;5.47;1.10;;;16.30;99.90;;;;;;5014334;28;20109;-76
2022/10/24 10:21:00;;;;;;;3.10;0.75;;;16.30;99.90;;;;;;5014808;28;20026;-76
2022/10/24 10:23:35;;;;;;;5.68;1.00;;;16.20;99.90;;;;;;5020277;28;20022;-77
2022/10/24 10:26:28;;;;;;;10.25;1.42;;;16.20;99.90;;;;;;4998571;28;20033;-77
2022/10/24 10:28:55;;;;;;;4.75;1.13;;;16.20;99.90;;;;;;5015256;28;20026;-77
2022/10/24 10:31:26;;;;;;;4.22;1.67;;;16.20;99.90;;;;;;5014257;28;20156;-75
2022/10/24 10:34:08;;;;;;;5.13;1.30;;;16.20;99.90;;;;;;5005910;28;20022;-76
2022/10/24 10:37:13;;;;;;;5.55;1.20;;;16.10;99.90;;;;;;5014722;28;20030;-77
2022/10/24 10:40:01;;;;;;;4.30;1.08;;;16.10;99.90;;;;;;4996673;28;20030;-77
2022/10/24 10:42:32;;;;;;;3.47;0.90;;;16.10;99.90;;;;;;5012506;28;20534;-76
2022/10/24 10:45:10;;;;;;;4.50;1.25;;;16.10;99.90;;;;;;5000190;28;20025;-77
2022/10/24 10:47:52;;;;;;;2.90;1.05;;;16.10;99.90;;;;;;5012407;28;20026;-76
2022/10/24 10:50:26;;;;;;;4.43;1.02;;;16.20;99.90;;;;;;5012925;28;20026;-77
2022/10/24 10:52:57;;;;;;;6.22;1.75;;;16.20;99.90;;;;;;5014564;28;20014;-77
2022/10/24 10:55:58;;;;;;;5.03;1.30;;;16.30;99.90;;;;;;5012803;28;20037;-76
2022/10/24 10:58:38;;;;;;;4.30;1.20;;;16.40;99.90;;;;;;5008435;28;20088;-77
2022/10/24 11:01:36;;;;;;;2.38;1.10;;;16.40;99.90;;;;;;4999396;28;20033;-77
2022/10/24 11:04:15;;;;;;;3.88;2.10;;;16.50;99.90;;;;;;5000993;28;20045;-76
2022/10/24 11:06:50;;;;;;;5.40;2.10;;;16.60;99.90;;;;;;5020632;28;20025;-77
2022/10/24 11:09:20;;;;;;;2.33;0.98;;;16.60;99.90;;;;;;5013771;28;20030;-77
2022/10/24 11:11:57;;;;;;;4.28;1.42;;;16.70;99.90;;;;;;5011737;28;20105;-77
2022/10/24 11:14:35;;;;;;;3.20;1.23;;;16.70;99.90;;;;;;5011864;28;20026;-77
2022/10/24 11:17:23;;;;;;;3.65;1.40;;;16.80;99.90;;;;;;5013387;28;20028;-77
2022/10/24 11:20:27;;;;;;;4.68;1.13;;;16.80;99.90;;;;;;4991304;28;20052;-77
2022/10/24 11:22:59;;;;;;;9.05;1.73;;;16.80;99.90;;;;;;5020650;28;20061;-77
2022/10/24 11:25:35;;;;;;;3.35;1.50;;;16.80;99.90;;;;;;5025078;28;20064;-78
2022/10/24 11:28:10;;;;;;;5.55;1.20;;;16.80;99.90;;;;;;5018935;28;20036;-78
2022/10/24 11:31:01;;;;;;;4.18;0.98;;;16.70;99.90;;;;;;5013166;28;20172;-77
2022/10/24 11:33:33;;;;;;;3.78;1.08;;;16.70;99.90;;;;;;4996357;28;20034;-77
2022/10/24 11:36:14;;;;;;;2.80;0.90;;;16.60;99.90;;;;;;5012746;28;20181;-77
2022/10/24 11:39:09;;;;;;;3.05;1.05;;;16.60;99.90;;;;;;5013289;28;20101;-78
2022/10/24 11:41:50;;;;;;;4.38;1.45;;;16.60;99.90;;;;;;5008478;28;20037;-78
2022/10/24 11:44:44;;;;;;;3.75;0.73;;;16.50;99.90;;;;;;4991710;28;20030;-77
2022/10/24 11:47:32;;;;;;;3.55;1.02;;;16.60;99.90;;;;;;5009440;28;20025;-76
2022/10/24 11:50:05;;;;;;;2.15;0.93;;;16.60;99.90;;;;;;5011251;28;20030;-76
2022/10/24 11:52:37;;;;;;;2.25;0.98;;;16.70;99.90;;;;;;5011416;28;20030;-77
2022/10/24 11:55:20;;;;;;;5.13;1.10;;;16.70;99.90;;;;;;5007542;28;20041;-77
2022/10/24 11:57:51;;;;;;;2.85;1.08;;;16.70;99.90;;;;;;5008486;28;20026;-77
2022/10/24 12:00:29;;;;;;;2.53;1.00;;;16.80;99.90;;;;;;4992617;28;20026;-76
2022/10/24 12:03:13;;;;;;;3.95;0.90;;;16.80;99.90;;;;;;5015278;28;20036;-76
2022/10/24 12:05:59;;;;;;;2.38;0.90;;;16.80;99.90;;;;;;5014772;28;20025;-79
2022/10/24 12:09:08;;;;;;;1.13;0.75;;;16.80;99.90;;;;;;4995633;28;20091;-77
2022/10/24 12:11:53;;;;;;;5.72;1.00;;;16.80;99.90;;;;;;5014963;28;20634;-77
2022/10/24 12:14:45;;;;;;;2.25;0.88;;;16.90;99.90;;;;;;5013077;28;20375;-77
2022/10/24 12:17:46;;;;;;;3.80;1.05;;;16.90;99.90;;;;;;5014495;28;20126;-77
2022/10/24 12:20:19;;;;;;;1.70;0.80;;;16.90;99.90;;;;;;5002394;28;20038;-78
2022/10/24 12:22:46;;;;;;;2.70;1.00;;;17.00;99.90;;;;;;5026487;28;20022;-77
2022/10/24 12:25:20;;;;;;;3.15;1.00;;;17.10;99.90;;;;;;5023025;28;20396;-77
2022/10/24 12:27:56;;;;;;;3.75;1.23;;;17.10;99.90;;;;;;5014878;28;20026;-77
2022/10/24 12:30:25;;;;;;;2.10;0.80;;;17.10;99.90;;;;;;4993046;28;20501;-77
2022/10/24 12:32:56;;;;;;;5.00;1.60;;;17.10;99.90;;;;;;4989718;28;20033;-76
2022/10/24 12:35:29;;;;;;;0.95;0.70;;;17.10;99.90;;;;;;5010240;28;22383;-76
2022/10/24 12:37:55;;;;;;;2.75;0.57;;;17.20;99.90;;;;;;5008877;28;20483;-77
2022/10/24 12:40:50;;;;;;;1.27;0.70;;;17.20;99.90;;;;;;5008974;28;20022;-77
2022/10/24 12:43:33;;;;;;;1.52;0.90;;;17.30;99.90;;;;;;5003561;28;20038;-76
2022/10/24 12:46:22;;;;;;;2.30;1.00;;;17.30;99.90;;;;;;5018390;28;20105;-77
2022/10/24 12:48:59;;;;;;;1.90;0.90;;;17.30;99.90;;;;;;5029233;28;20026;-76
2022/10/24 12:51:25;;;;;;;2.40;0.70;;;17.40;99.90;;;;;;5027109;28;20030;-77
2022/10/24 12:53:57;;;;;;;1.52;0.90;;;17.40;99.90;;;;;;5008625;28;20026;-77
2022/10/24 12:56:22;;;;;;;1.92;0.80;;;17.40;99.90;;;;;;5020397;28;20034;-77
2022/10/24 12:59:01;;;;;;;1.17;0.77;;;17.50;99.90;;;;;;5029040;28;20032;-78
2022/10/24 13:01:33;;;;;;;4.63;1.20;;;17.50;99.90;;;;;;5023149;28;20025;-77
2022/10/24 13:04:24;;;;;;;2.85;0.70;;;17.50;99.90;;;;;;5025522;28;20026;-77
2022/10/24 13:07:10;;;;;;;1.67;1.00;;;17.50;99.90;;;;;;5024205;28;20018;-77